Time;durP1;ratioP1;P1;durP2;ratioP2;P2;SDS_P1;SDS_P2;PMS_P1;PMS_P2;Temp;Humidity;BMP_temperature;BMP_pressure;BME280_temperature;BME280_humidity;BME280_pressure;Samples;Min_cycle;Max_cycle;Signal;HPM_P1;HPM_P2
2022/11/23 00:02:13;;;;;;;;;;;4.20;99.90;;;;;;5048613;28;19958;-58
2022/11/23 00:04:38;;;;;;;;;;;4.20;99.90;;;;;;5049383;28;20263;-55
2022/11/23 00:07:04;;;;;;;;;;;4.10;99.90;;;;;;5049272;28;19944;-55
2022/11/23 00:09:29;;;;;;;;;;;4.10;99.90;;;;;;5049285;28;19916;-56
2022/11/23 00:11:55;;;;;;;;;;;4.10;99.90;;;;;;5048485;28;19913;-57
2022/11/23 00:14:20;;;;;;;;;;;4.00;99.90;;;;;;5048028;28;19912;-57
2022/11/23 00:16:46;;;;;;;;;;;4.00;99.90;;;;;;5049220;28;19966;-51
2022/11/23 00:19:11;;;;;;;;;;;4.00;99.90;;;;;;5049247;28;20343;-55
2022/11/23 00:21:37;;;;;;;;;;;4.00;99.90;;;;;;5048502;28;20008;-56
2022/11/23 00:24:02;;;;;;;;;;;4.00;99.90;;;;;;5049008;28;19909;-56
2022/11/23 00:26:28;;;;;;;;;;;4.00;99.90;;;;;;5047162;28;19956;-54
2022/11/23 00:28:53;;;;;;;;;;;4.00;99.90;;;;;;5049184;28;19939;-55
2022/11/23 00:31:19;;;;;;;;;;;4.00;99.90;;;;;;5047899;28;19976;-54
2022/11/23 00:33:49;;;;;;;;;;;4.00;99.90;;;;;;5049323;28;19913;-55
2022/11/23 00:36:15;;;;;;;;;;;4.00;99.90;;;;;;5048907;28;19917;-56
2022/11/23 00:38:41;;;;;;;;;;;4.00;99.90;;;;;;5048921;28;20279;-56
2022/11/23 00:41:08;;;;;;;;;;;4.00;99.90;;;;;;5048013;28;19927;-54
2022/11/23 00:43:34;;;;;;;;;;;4.00;99.90;;;;;;5049008;28;19913;-54
2022/11/23 00:46:05;;;;;;;;;;;4.00;99.90;;;;;;5049485;28;19909;-54
2022/11/23 00:48:31;;;;;;;;;;;3.90;99.90;;;;;;5048152;28;20012;-57
2022/11/23 00:50:56;;;;;;;;;;;4.00;99.90;;;;;;5047891;28;20003;-53
2022/11/23 00:53:21;;;;;;;;;;;3.90;99.90;;;;;;5048406;28;20000;-53
2022/11/23 00:55:54;;;;;;;;;;;3.90;99.90;;;;;;5052403;28;19925;-54
2022/11/23 00:58:20;;;;;;;;;;;3.90;99.90;;;;;;5053027;28;19931;-52
2022/11/23 01:00:46;;;;;;;;;;;3.80;99.90;;;;;;5051635;28;19996;-54
2022/11/23 01:03:12;;;;;;;;;;;3.90;99.90;;;;;;5053013;28;19920;-59
2022/11/23 01:05:37;;;;;;;;;;;3.80;99.90;;;;;;5051321;28;20351;-56
2022/11/23 01:08:03;;;;;;;;;;;3.80;99.90;;;;;;5053063;28;19982;-56
2022/11/23 01:10:29;;;;;;;;;;;3.80;99.90;;;;;;5050657;28;20008;-58
2022/11/23 01:12:55;;;;;;;;;;;3.80;99.90;;;;;;5052537;28;19920;-55
2022/11/23 01:15:20;;;;;;;;;;;3.80;99.90;;;;;;5050900;28;19913;-53
2022/11/23 01:17:46;;;;;;;;;;;3.80;99.90;;;;;;5052203;28;19913;-55
2022/11/23 01:20:11;;;;;;;;;;;3.80;99.90;;;;;;5052366;28;19912;-55
2022/11/23 01:22:37;;;;;;;;;;;3.90;99.90;;;;;;5051575;28;20011;-54
2022/11/23 01:25:02;;;;;;;;;;;3.90;99.90;;;;;;5052359;28;19909;-56
2022/11/23 01:27:28;;;;;;;;;;;3.80;99.90;;;;;;5052222;28;19916;-53
2022/11/23 01:29:54;;;;;;;;;;;3.80;99.90;;;;;;5051341;28;19960;-53
2022/11/23 01:32:19;;;;;;;;;;;3.80;99.90;;;;;;5050993;28;19931;-55
2022/11/23 01:34:45;;;;;;;;;;;3.80;99.90;;;;;;5052304;28;20383;-54
2022/11/23 01:37:10;;;;;;;;;;;3.70;99.90;;;;;;5052443;28;19916;-54
2022/11/23 01:39:36;;;;;;;;;;;3.70;99.90;;;;;;5052221;28;19909;-52
2022/11/23 01:42:05;;;;;;;;;;;3.70;99.90;;;;;;5046926;28;19921;-54
2022/11/23 01:44:31;;;;;;;;;;;3.70;99.90;;;;;;5045437;28;19913;-55
2022/11/23 01:47:01;;;;;;;;;;;3.70;99.90;;;;;;5047602;28;20442;-57
2022/11/23 01:49:32;;;;;;;;;;;3.70;99.90;;;;;;5052108;28;19923;-57
2022/11/23 01:52:01;;;;;;;;;;;3.70;99.90;;;;;;5050915;28;19929;-54
2022/11/23 01:54:33;;;;;;;;;;;3.70;99.90;;;;;;5051742;28;20509;-56
2022/11/23 01:57:00;;;;;;;;;;;3.60;99.90;;;;;;5050619;28;20345;-55
2022/11/23 01:59:27;;;;;;;;;;;3.60;99.90;;;;;;5051738;28;19909;-56
2022/11/23 02:01:53;;;;;;;;;;;3.60;99.90;;;;;;5050662;28;19940;-54
2022/11/23 02:04:21;;;;;;;;;;;3.60;99.90;;;;;;5051527;28;19913;-55
2022/11/23 02:06:47;;;;;;;;;;;3.60;99.90;;;;;;5051643;28;19916;-57
2022/11/23 02:09:14;;;;;;;;;;;3.60;99.90;;;;;;5051421;28;20279;-55
2022/11/23 02:11:39;;;;;;;;;;;3.60;99.90;;;;;;5050604;28;19913;-52
2022/11/23 02:14:05;;;;;;;;;;;3.60;99.90;;;;;;5051462;28;19915;-54
2022/11/23 02:16:30;;;;;;;;;;;3.60;99.90;;;;;;5051295;28;20066;-58
2022/11/23 02:18:56;;;;;;;;;;;3.50;99.90;;;;;;5051149;28;19966;-53
2022/11/23 02:21:21;;;;;;;;;;;3.50;99.90;;;;;;5050633;28;20279;-53
2022/11/23 02:23:59;;;;;;;;;;;3.50;99.90;;;;;;5050321;28;19928;-53
2022/11/23 02:26:26;;;;;;;;;;;3.40;99.90;;;;;;5051632;28;19916;-59
2022/11/23 02:29:04;;;;;;;;;;;3.40;99.90;;;;;;5051412;28;20050;-56
2022/11/23 02:31:29;;;;;;;;;;;3.40;99.90;;;;;;5049870;28;19920;-52
2022/11/23 02:33:55;;;;;;;;;;;3.40;99.90;;;;;;5051038;28;19916;-57
2022/11/23 02:36:39;;;;;;;;;;;3.40;99.90;;;;;;5050855;28;19916;-55
2022/11/23 02:39:07;;;;;;;;;;;3.40;99.90;;;;;;5051221;28;19963;-54
2022/11/23 02:41:36;;;;;;;;;;;3.30;99.90;;;;;;5049011;28;19995;-54
2022/11/23 02:44:03;;;;;;;;;;;3.30;99.90;;;;;;5050942;28;19909;-55
2022/11/23 02:46:28;;;;;;;;;;;3.40;99.90;;;;;;5051058;28;19913;-56
2022/11/23 02:48:54;;;;;;;;;;;3.40;99.90;;;;;;5050831;28;19913;-51
2022/11/23 02:51:19;;;;;;;;;;;3.40;99.90;;;;;;5049275;28;20291;-52
2022/11/23 02:53:45;;;;;;;;;;;3.40;99.90;;;;;;5050983;28;20314;-53
2022/11/23 02:56:10;;;;;;;;;;;3.40;99.90;;;;;;5050319;28;20019;-52
2022/11/23 02:58:36;;;;;;;;;;;3.40;99.90;;;;;;5050730;28;19980;-54
2022/11/23 03:01:01;;;;;;;;;;;3.40;99.90;;;;;;5047579;28;20015;-56
2022/11/23 03:03:26;;;;;;;;;;;3.40;99.90;;;;;;5050512;28;19960;-55
2022/11/23 03:05:52;;;;;;;;;;;3.40;99.90;;;;;;5050519;28;20007;-55
2022/11/23 03:08:18;;;;;;;;;;;3.50;99.90;;;;;;5051049;28;19909;-53
2022/11/23 03:10:43;;;;;;;;;;;3.50;99.90;;;;;;5049229;28;20470;-54
2022/11/23 03:13:08;;;;;;;;;;;3.40;99.90;;;;;;5050478;28;19909;-55
2022/11/23 03:15:34;;;;;;;;;;;3.50;99.90;;;;;;5050007;28;20386;-54
2022/11/23 03:17:59;;;;;;;;;;;3.50;99.90;;;;;;5048551;28;19969;-55
2022/11/23 03:20:25;;;;;;;;;;;3.50;99.90;;;;;;5049169;28;19924;-56
2022/11/23 03:22:50;;;;;;;;;;;3.50;99.90;;;;;;5050167;28;20286;-54
2022/11/23 03:25:16;;;;;;;;;;;3.50;99.90;;;;;;5050147;28;19920;-52
2022/11/23 03:27:41;;;;;;;;;;;3.50;99.90;;;;;;5050452;28;20329;-55
2022/11/23 03:30:07;;;;;;;;;;;3.50;99.90;;;;;;5049309;28;19920;-52
2022/11/23 03:32:33;;;;;;;;;;;3.50;99.90;;;;;;5049747;28;19920;-54
2022/11/23 03:34:59;;;;;;;;;;;3.50;99.90;;;;;;5049647;28;20016;-56
2022/11/23 03:37:24;;;;;;;;;;;3.50;99.90;;;;;;5049910;28;19912;-51
2022/11/23 03:39:50;;;;;;;;;;;3.40;99.90;;;;;;5048673;28;19923;-56
2022/11/23 03:42:15;;;;;;;;;;;3.50;99.90;;;;;;5049822;28;19916;-50
2022/11/23 03:44:41;;;;;;;;;;;3.50;99.90;;;;;;5049749;28;20005;-53
2022/11/23 03:47:06;;;;;;;;;;;3.50;99.90;;;;;;5048031;28;20398;-54
2022/11/23 03:49:32;;;;;;;;;;;3.60;99.90;;;;;;5048577;28;19913;-53
2022/11/23 03:51:57;;;;;;;;;;;3.60;99.90;;;;;;5048627;28;19924;-54
2022/11/23 03:54:23;;;;;;;;;;;3.60;99.90;;;;;;5049410;28;20301;-53
2022/11/23 03:56:48;;;;;;;;;;;3.60;99.90;;;;;;5049323;28;19920;-55
2022/11/23 03:59:14;;;;;;;;;;;3.60;99.90;;;;;;5049477;28;19920;-54
2022/11/23 04:01:39;;;;;;;;;;;3.60;99.90;;;;;;5048764;28;19917;-56
2022/11/23 04:04:05;;;;;;;;;;;3.60;99.90;;;;;;5049770;28;19963;-58
2022/11/23 04:06:30;;;;;;;;;;;3.60;99.90;;;;;;5049237;28;19960;-50
2022/11/23 04:08:56;;;;;;;;;;;3.60;99.90;;;;;;5049234;28;19908;-53
2022/11/23 04:11:21;;;;;;;;;;;3.70;99.90;;;;;;5048130;28;19917;-56
2022/11/23 04:13:47;;;;;;;;;;;3.70;99.90;;;;;;5048540;28;19959;-51
2022/11/23 04:16:12;;;;;;;;;;;3.70;99.90;;;;;;5049352;28;19917;-54
2022/11/23 04:18:38;;;;;;;;;;;3.80;99.90;;;;;;5049103;28;19919;-52
2022/11/23 04:21:03;;;;;;;;;;;3.80;99.90;;;;;;5048028;28;19917;-53
2022/11/23 04:23:29;;;;;;;;;;;3.80;99.90;;;;;;5048993;28;19913;-55
2022/11/23 04:25:54;;;;;;;;;;;3.90;99.90;;;;;;5047600;28;20264;-55
2022/11/23 04:28:20;;;;;;;;;;;3.90;99.90;;;;;;5048517;28;19928;-52
2022/11/23 04:30:45;;;;;;;;;;;3.90;99.90;;;;;;5046613;28;19913;-50
2022/11/23 04:33:11;;;;;;;;;;;3.90;99.90;;;;;;5046493;28;20282;-54
2022/11/23 04:35:36;;;;;;;;;;;3.90;99.90;;;;;;5048170;28;19928;-55
2022/11/23 04:38:02;;;;;;;;;;;3.90;99.90;;;;;;5048953;28;20366;-53
2022/11/23 04:40:30;;;;;;;;;;;3.90;99.90;;;;;;5048547;28;19924;-55
2022/11/23 04:42:56;;;;;;;;;;;3.90;99.90;;;;;;5048756;28;20346;-52
2022/11/23 04:45:21;;;;;;;;;;;3.90;99.90;;;;;;5048846;28;19920;-52
2022/11/23 04:47:47;;;;;;;;;;;3.80;99.90;;;;;;5048748;28;20449;-55
2022/11/23 04:50:12;;;;;;;;;;;3.90;99.90;;;;;;5047828;28;19917;-51
2022/11/23 04:52:38;;;;;;;;;;;3.80;99.90;;;;;;5048620;28;19909;-53
2022/11/23 04:55:03;;;;;;;;;;;3.80;99.90;;;;;;5048551;28;19967;-57
2022/11/23 04:57:29;;;;;;;;;;;3.70;99.90;;;;;;5049116;28;19909;-53
2022/11/23 04:59:54;;;;;;;;;;;3.70;99.90;;;;;;5046142;28;19919;-56
2022/11/23 05:02:20;;;;;;;;;;;3.70;99.90;;;;;;5048622;28;20011;-53
2022/11/23 05:04:45;;;;;;;;;;;3.70;99.90;;;;;;5049074;28;19916;-51
2022/11/23 05:07:11;;;;;;;;;;;3.60;99.90;;;;;;5047016;28;19916;-53
2022/11/23 05:09:36;;;;;;;;;;;3.60;99.90;;;;;;5043180;28;19966;-53
2022/11/23 05:12:02;;;;;;;;;;;3.60;99.90;;;;;;5046909;28;19913;-52
2022/11/23 05:14:27;;;;;;;;;;;3.60;99.90;;;;;;5049017;28;20450;-55
2022/11/23 05:16:53;;;;;;;;;;;3.60;99.90;;;;;;5047565;28;19909;-49
2022/11/23 05:19:18;;;;;;;;;;;3.60;99.90;;;;;;5039197;28;19913;-51
2022/11/23 05:21:44;;;;;;;;;;;3.70;99.90;;;;;;5039480;28;19913;-54
2022/11/23 05:24:09;;;;;;;;;;;3.70;99.90;;;;;;5039295;28;20347;-56
2022/11/23 05:26:35;;;;;;;;;;;3.70;99.90;;;;;;5039667;28;19916;-47
2022/11/23 05:29:00;;;;;;;;;;;3.70;99.90;;;;;;5039432;28;19944;-53
2022/11/23 05:31:26;;;;;;;;;;;3.70;99.90;;;;;;5039466;28;20379;-53
2022/11/23 05:33:51;;;;;;;;;;;3.60;99.90;;;;;;5039037;28;19917;-54
2022/11/23 05:36:17;;;;;;;;;;;3.60;99.90;;;;;;5039148;28;20396;-56
2022/11/23 05:38:42;;;;;;;;;;;3.60;99.90;;;;;;5039343;28;20001;-51
2022/11/23 05:41:08;;;;;;;;;;;3.60;99.90;;;;;;5048777;28;19925;-53
2022/11/23 05:43:33;;;;;;;;;;;3.60;99.90;;;;;;5052095;28;20252;-56
2022/11/23 05:45:59;;;;;;;;;;;3.60;99.90;;;;;;5052123;28;19913;-57
2022/11/23 05:48:25;;;;;;;;;;;3.50;99.90;;;;;;5052295;28;19923;-51
2022/11/23 05:50:50;;;;;;;;;;;3.60;99.90;;;;;;5052533;28;20419;-55
2022/11/23 05:53:16;;;;;;;;;;;3.50;99.90;;;;;;5051592;28;19955;-51
2022/11/23 05:55:41;;;;;;;;;;;3.60;99.90;;;;;;5051615;28;19956;-53
2022/11/23 05:58:10;;;;;;;;;;;3.50;99.90;;;;;;5051852;28;19917;-53
2022/11/23 06:00:35;;;;;;;;;;;3.50;99.90;;;;;;5051634;28;19909;-53
2022/11/23 06:03:01;;;;;;;;;;;3.50;99.90;;;;;;5051229;28;20437;-53
2022/11/23 06:05:27;;;;;;;;;;;3.50;99.90;;;;;;5051615;28;19917;-54
2022/11/23 06:07:53;;;;;;;;;;;3.50;99.90;;;;;;5051549;28;20425;-53
2022/11/23 06:10:18;;;;;;;;;;;3.50;99.90;;;;;;5051778;28;19916;-52
2022/11/23 06:12:48;;;;;;;;;;;3.60;99.90;;;;;;5051753;28;19959;-54
2022/11/23 06:15:14;;;;;;;;;;;3.60;99.90;;;;;;5051412;28;20003;-53
2022/11/23 06:17:40;;;;;;;;;;;3.60;99.90;;;;;;5051407;28;20332;-52
2022/11/23 06:20:06;;;;;;;;;;;3.60;99.90;;;;;;5051449;28;19913;-49
2022/11/23 06:22:32;;;;;;;;;;;3.60;99.90;;;;;;5051203;28;20317;-53
2022/11/23 06:24:57;;;;;;;;;;;3.70;99.90;;;;;;5049926;28;19991;-53
2022/11/23 06:27:23;;;;;;;;;;;3.60;99.90;;;;;;5051353;28;19913;-55
2022/11/23 06:29:48;;;;;;;;;;;3.60;99.90;;;;;;5051219;28;19913;-56
2022/11/23 06:32:14;;;;;;;;;;;3.60;99.90;;;;;;5049697;28;20371;-60
2022/11/23 06:34:39;;;;;;;;;;;3.60;99.90;;;;;;5051026;28;19924;-53
2022/11/23 06:37:05;;;;;;;;;;;3.60;99.90;;;;;;5051075;28;20056;-52
2022/11/23 06:39:30;;;;;;;;;;;3.60;99.90;;;;;;5051059;28;20326;-55
2022/11/23 06:41:56;;;;;;;;;;;3.60;99.90;;;;;;5049783;28;20343;-59
2022/11/23 06:44:21;;;;;;;;;;;3.60;99.90;;;;;;5050849;28;19908;-55
2022/11/23 06:46:47;;;;;;;;;;;3.70;99.90;;;;;;5051260;28;19996;-54
2022/11/23 06:49:12;;;;;;;;;;;3.70;99.90;;;;;;5050870;28;19924;-56
2022/11/23 06:51:38;;;;;;;;;;;3.70;99.90;;;;;;5050006;28;20374;-54
2022/11/23 06:54:03;;;;;;;;;;;3.70;99.90;;;;;;5050591;28;20359;-54
2022/11/23 06:56:30;;;;;;;;;;;3.70;99.90;;;;;;5050671;28;19916;-55
2022/11/23 06:58:55;;;;;;;;;;;3.70;99.90;;;;;;5050023;28;19959;-51
2022/11/23 07:01:21;;;;;;;;;;;3.70;99.90;;;;;;5050459;28;19909;-54
2022/11/23 07:03:46;;;;;;;;;;;3.70;99.90;;;;;;5050494;28;19956;-54
2022/11/23 07:06:12;;;;;;;;;;;3.80;99.90;;;;;;5065930;28;19909;-54
2022/11/23 07:08:42;;;;;;;;;;;3.80;99.90;;;;;;5050505;28;19913;-56
2022/11/23 07:11:08;;;;;;;;;;;3.90;99.90;;;;;;5050835;28;20031;-56
2022/11/23 07:13:33;;;;;;;;;;;3.90;99.90;;;;;;5050351;28;19913;-52
2022/11/23 07:15:59;;;;;;;;;;;3.90;99.90;;;;;;5050298;28;20409;-53
2022/11/23 07:18:25;;;;;;;;;;;3.90;99.90;;;;;;5050186;28;19962;-56
2022/11/23 07:20:50;;;;;;;;;;;3.90;99.90;;;;;;5050133;28;20391;-57
2022/11/23 07:23:16;;;;;;;;;;;3.90;99.90;;;;;;5050373;28;19927;-56
2022/11/23 07:25:41;;;;;;;;;;;3.90;99.90;;;;;;5050581;28;20356;-57
2022/11/23 07:28:07;;;;;;;;;;;4.00;99.90;;;;;;5050034;28;19912;-51
2022/11/23 07:30:34;;;;;;;;;;;4.00;99.90;;;;;;5050301;28;19923;-54
2022/11/23 07:33:03;;;;;;;;;;;4.00;99.90;;;;;;5049855;28;19924;-55
2022/11/23 07:35:30;;;;;;;;;;;4.10;99.90;;;;;;5049869;28;19920;-53
2022/11/23 07:37:56;;;;;;;;;;;4.00;99.90;;;;;;5049944;28;19912;-54
2022/11/23 07:40:21;;;;;;;;;;;4.00;99.90;;;;;;5049857;28;19909;-53
2022/11/23 07:42:47;;;;;;;;;;;4.10;99.90;;;;;;5049927;28;19923;-51
2022/11/23 07:45:13;;;;;;;;;;;4.10;99.90;;;;;;5050026;28;19909;-53
2022/11/23 07:47:38;;;;;;;;;;;4.20;99.90;;;;;;5050019;28;19957;-55
2022/11/23 07:50:05;;;;;;;;;;;4.20;99.90;;;;;;5049819;28;19920;-51
2022/11/23 07:52:30;;;;;;;;;;;4.20;99.90;;;;;;5049693;28;19919;-52
2022/11/23 07:54:56;;;;;;;;;;;4.20;99.90;;;;;;5048695;28;19932;-53
2022/11/23 07:57:21;;;;;;;;;;;4.30;99.90;;;;;;5049437;28;19952;-51
2022/11/23 07:59:47;;;;;;;;;;;4.30;99.90;;;;;;5049514;28;19909;-57
2022/11/23 08:02:13;;;;;;;;;;;4.30;99.90;;;;;;5049447;28;20362;-54
2022/11/23 08:04:39;;;;;;;;;;;4.30;99.90;;;;;;5049301;28;20290;-53
2022/11/23 08:07:04;;;;;;;;;;;4.30;99.90;;;;;;5049380;28;19915;-53
2022/11/23 08:09:30;;;;;;;;;;;4.30;99.90;;;;;;5049288;28;20101;-52
2022/11/23 08:11:55;;;;;;;;;;;4.30;99.90;;;;;;5049575;28;19970;-55
2022/11/23 08:14:22;;;;;;;;;;;4.30;99.90;;;;;;5049872;28;20491;-51
2022/11/23 08:16:51;;;;;;;;;;;4.40;99.90;;;;;;5049745;28;19923;-52
2022/11/23 08:19:16;;;;;;;;;;;4.50;99.90;;;;;;5049391;28;19956;-56
2022/11/23 08:21:42;;;;;;;;;;;4.60;99.90;;;;;;5049725;28;19952;-51
2022/11/23 08:24:08;;;;;;;;;;;4.60;99.90;;;;;;5049265;28;20347;-53
2022/11/23 08:26:33;;;;;;;;;;;4.70;99.90;;;;;;5048901;28;19913;-55
2022/11/23 08:28:59;;;;;;;;;;;4.80;99.90;;;;;;5049159;28;20359;-54
2022/11/23 08:31:24;;;;;;;;;;;5.00;99.90;;;;;;5048824;28;20437;-54
2022/11/23 08:33:50;;;;;;;;;;;5.00;99.90;;;;;;5049022;28;19913;-54
2022/11/23 08:36:15;;;;;;;;;;;5.10;99.90;;;;;;5048840;28;19917;-51
2022/11/23 08:38:41;;;;;;;;;;;5.20;99.90;;;;;;5049233;28;20267;-53
2022/11/23 08:41:06;;;;;;;;;;;5.30;99.90;;;;;;5047491;28;19913;-54
2022/11/23 08:43:32;;;;;;;;;;;5.30;99.90;;;;;;5049096;28;19909;-52
2022/11/23 08:45:57;;;;;;;;;;;5.30;99.90;;;;;;5048829;28;19920;-55
2022/11/23 08:48:23;;;;;;;;;;;5.40;99.90;;;;;;5048843;28;19913;-58
2022/11/23 08:50:49;;;;;;;;;;;5.50;99.90;;;;;;5048692;28;20275;-53
2022/11/23 08:53:14;;;;;;;;;;;5.50;99.90;;;;;;5049278;28;19909;-54
2022/11/23 08:55:40;;;;;;;;;;;5.50;99.90;;;;;;5048632;28;20444;-57
2022/11/23 08:58:07;;;;;;;;;;;5.50;99.90;;;;;;5064583;28;20329;-52
2022/11/23 09:00:32;;;;;;;;;;;5.50;99.90;;;;;;5048967;28;20386;-54
2022/11/23 09:02:58;;;;;;;;;;;5.70;99.90;;;;;;5048972;28;19956;-56
2022/11/23 09:05:24;;;;;;;;;;;5.70;99.90;;;;;;5048588;28;19916;-50
2022/11/23 09:07:50;;;;;;;;;;;5.70;99.90;;;;;;5048730;28;19909;-48
2022/11/23 09:10:15;;;;;;;;;;;5.80;99.90;;;;;;5048501;28;19924;-49
2022/11/23 09:12:41;;;;;;;;;;;5.90;99.90;;;;;;5048571;28;19960;-51
2022/11/23 09:15:07;;;;;;;;;;;6.10;99.90;;;;;;5049274;28;20000;-51
2022/11/23 09:17:32;;;;;;;;;;;6.10;99.90;;;;;;5052664;28;20377;-53
2022/11/23 09:19:58;;;;;;;;;;;6.00;99.90;;;;;;5052471;28;20004;-48
2022/11/23 09:22:23;;;;;;;;;;;6.00;99.90;;;;;;5052607;28;20444;-50
2022/11/23 09:24:49;;;;;;;;;;;6.20;99.90;;;;;;5052402;28;19940;-48
2022/11/23 09:27:14;;;;;;;;;;;6.40;99.90;;;;;;5052297;28;19916;-48
2022/11/23 09:29:40;;;;;;;;;;;6.50;99.90;;;;;;5052354;28;19913;-60
2022/11/23 09:32:05;;;;;;;;;;;6.60;99.90;;;;;;5052142;28;19921;-48
2022/11/23 09:34:31;;;;;;;;;;;6.60;99.90;;;;;;5052265;28;20317;-50
2022/11/23 09:36:57;;;;;;;;;;;6.60;99.90;;;;;;5052582;28;19916;-49
2022/11/23 09:39:22;;;;;;;;;;;6.50;99.90;;;;;;5052145;28;20368;-49
2022/11/23 09:41:50;;;;;;;;;;;6.70;99.90;;;;;;5052460;28;19912;-53
2022/11/23 09:44:16;;;;;;;;;;;6.80;99.90;;;;;;5052150;28;20650;-47
2022/11/23 09:46:44;;;;;;;;;;;6.90;99.90;;;;;;5051968;28;19999;-52
2022/11/23 09:49:15;;;;;;;;;;;7.00;99.90;;;;;;5052010;28;19912;-48
2022/11/23 09:51:41;;;;;;;;;;;7.20;99.90;;;;;;5052067;28;19913;-49
2022/11/23 09:54:13;;;;;;;;;;;7.40;99.90;;;;;;5052005;28;20031;-51
2022/11/23 09:56:40;;;;;;;;;;;7.50;99.90;;;;;;5051712;28;20327;-51
2022/11/23 09:59:19;;;;;;;;;;;7.60;99.90;;;;;;5051729;28;20326;-51
2022/11/23 10:01:45;;;;;;;;;;;7.70;99.90;;;;;;5051769;28;19909;-47
2022/11/23 10:04:15;;;;;;;;;;;7.80;99.90;;;;;;5051666;28;19913;-48
2022/11/23 10:06:41;;;;;;;;;;;8.00;99.90;;;;;;5051707;28;19920;-51
2022/11/23 10:09:16;;;;;;;;;;;8.10;99.90;;;;;;5051552;28;19909;-58
2022/11/23 10:11:54;;;;;;;;;;;8.40;99.90;;;;;;5051363;28;20370;-51
2022/11/23 10:14:38;;;;;;;;;;;8.70;99.90;;;;;;5051507;28;19920;-48
2022/11/23 10:17:06;;;;;;;;;;;8.90;99.90;;;;;;5051461;28;20023;-51
2022/11/23 10:19:52;;;;;;;;;;;9.10;99.90;;;;;;5051558;28;20358;-49
2022/11/23 10:22:23;;;;;;;;;;;9.00;99.90;;;;;;5040063;28;19913;-49
2022/11/23 10:24:50;;;;;;;;;;;9.30;99.90;;;;;;5051354;28;20731;-49
2022/11/23 10:27:17;;;;;;;;;;;9.40;99.90;;;;;;5050066;28;20013;-50
2022/11/23 10:29:42;;;;;;;;;;;9.50;99.90;;;;;;5051251;28;19917;-49
2022/11/23 10:32:21;;;;;;;;;;;9.70;99.90;;;;;;5051034;28;20420;-51
2022/11/23 10:34:55;;;;;;;;;;;9.70;99.90;;;;;;5051023;28;19917;-47
2022/11/23 10:37:20;;;;;;;;;;;10.00;99.90;;;;;;5051132;28;20369;-53
2022/11/23 10:39:46;;;;;;;;;;;10.10;99.90;;;;;;5051140;28;19936;-48
2022/11/23 10:42:50;;;;;;;;;;;10.70;99.90;;;;;;5051026;28;20370;-51
2022/11/23 10:45:22;;;;;;;;;;;11.40;99.90;;;;;;5028453;28;19952;-48
2022/11/23 10:47:57;;;;;;;;;;;12.10;96.90;;;;;;5028343;28;20326;-53
2022/11/23 10:50:24;;;;;;;;;;;12.60;94.60;;;;;;5028404;28;19913;-48
2022/11/23 10:52:51;;;;;;;;;;;12.90;92.60;;;;;;5028449;28;20374;-54
2022/11/23 10:55:17;;;;;;;;;;;12.90;90.80;;;;;;5011280;28;19913;-49
2022/11/23 10:57:44;;;;;;;;;;;12.70;91.20;;;;;;5028233;28;20394;-55
2022/11/23 11:00:09;;;;;;;;;;;12.30;91.30;;;;;;5028115;28;19910;-54
2022/11/23 11:02:42;;;;;;;;;;;12.50;91.10;;;;;;5027942;28;20388;-52
2022/11/23 11:05:27;;;;;;;;;;;12.90;91.00;;;;;;5028237;28;19913;-49
2022/11/23 11:07:53;;;;;;;;;;;13.10;89.50;;;;;;5028044;28;19941;-47
2022/11/23 11:10:32;;;;;;;;;;;13.50;88.50;;;;;;5035367;28;19925;-52
2022/11/23 11:12:57;;;;;;;;;;;13.70;86.00;;;;;;5028103;28;19909;-53
2022/11/23 11:15:23;;;;;;;;;;;13.90;83.30;;;;;;5032859;28;20373;-51
2022/11/23 11:17:56;;;;;;;;;;;14.50;80.40;;;;;;5050313;28;19920;-58
2022/11/23 11:20:27;;;;;;;;;;;14.70;75.30;;;;;;5050428;28;19908;-48
2022/11/23 11:22:54;;;;;;;;;;;14.70;72.70;;;;;;5050348;28;20252;-50
2022/11/23 11:25:30;;;;;;;;;;;15.20;71.80;;;;;;5048806;28;19913;-48
2022/11/23 11:27:56;;;;;;;;;;;15.40;69.60;;;;;;5050505;28;19962;-50
2022/11/23 11:30:23;;;;;;;;;;;15.80;66.60;;;;;;5050457;28;19924;-52
2022/11/23 11:32:59;;;;;;;;;;;16.20;65.20;;;;;;5049987;28;19920;-57
2022/11/23 11:35:27;;;;;;;;;;;16.40;63.40;;;;;;5049942;28;19921;-51
2022/11/23 11:38:19;;;;;;;;;;;16.10;61.90;;;;;;5049457;28;19909;-48
2022/11/23 11:40:44;;;;;;;;;;;16.20;61.80;;;;;;5048714;28;19994;-53
2022/11/23 11:43:16;;;;;;;;;;;16.30;59.90;;;;;;5049782;28;19975;-52
2022/11/23 11:45:43;;;;;;;;;;;15.90;61.10;;;;;;5049694;28;20003;-48
2022/11/23 11:48:11;;;;;;;;;;;16.00;60.40;;;;;;5049804;28;19909;-48
2022/11/23 11:50:57;;;;;;;;;;;16.20;60.50;;;;;;5049748;28;20256;-54
2022/11/23 11:53:35;;;;;;;;;;;16.10;60.00;;;;;;5038323;28;19909;-47
2022/11/23 11:56:05;;;;;;;;;;;16.10;58.80;;;;;;5049403;28;19920;-56
2022/11/23 11:58:33;;;;;;;;;;;16.00;59.50;;;;;;5049536;28;19913;-50
2022/11/23 12:01:04;;;;;;;;;;;15.80;59.10;;;;;;5049544;28;19920;-47
2022/11/23 12:03:41;;;;;;;;;;;15.80;60.00;;;;;;5049622;28;19912;-50
2022/11/23 12:06:13;;;;;;;;;;;15.10;60.80;;;;;;5049257;28;20282;-53
2022/11/23 12:08:47;;;;;;;;;;;15.70;62.30;;;;;;5049685;28;19939;-54
2022/11/23 12:11:13;;;;;;;;;;;15.70;61.00;;;;;;5049292;28;20422;-51
2022/11/23 12:13:40;;;;;;;;;;;15.70;60.30;;;;;;5049390;28;19992;-48
2022/11/23 12:16:15;;;;;;;;;;;15.40;61.00;;;;;;5049179;28;19916;-48
2022/11/23 12:18:49;;;;;;;;;;;14.90;63.00;;;;;;5048604;28;20303;-48
2022/11/23 12:21:38;;;;;;;;;;;14.70;64.30;;;;;;5047958;28;19909;-49
2022/11/23 12:24:06;;;;;;;;;;;14.20;65.80;;;;;;5049262;28;19978;-58
2022/11/23 12:26:44;;;;;;;;;;;14.10;67.70;;;;;;5048964;28;19923;-51
2022/11/23 12:29:34;;;;;;;;;;;14.40;68.00;;;;;;5047650;28;19928;-51
2022/11/23 12:32:11;;;;;;;;;;;14.40;66.70;;;;;;5048864;28;19924;-55
2022/11/23 12:34:51;;;;;;;;;;;14.20;67.80;;;;;;5036449;28;20416;-54
2022/11/23 12:37:43;;;;;;;;;;;14.30;69.10;;;;;;5048919;28;20003;-49
2022/11/23 12:40:27;;;;;;;;;;;14.60;68.20;;;;;;5039612;28;19912;-50
2022/11/23 12:43:00;;;;;;;;;;;14.90;66.50;;;;;;5064330;28;19913;-52
2022/11/23 12:45:29;;;;;;;;;;;15.10;66.80;;;;;;5048876;28;19990;-50
2022/11/23 12:47:57;;;;;;;;;;;15.10;66.10;;;;;;5048790;28;20011;-51
2022/11/23 12:50:28;;;;;;;;;;;15.20;66.30;;;;;;5048520;28;19909;-51
2022/11/23 12:52:56;;;;;;;;;;;15.10;65.30;;;;;;5049097;28;20376;-48
2022/11/23 12:55:45;;;;;;;;;;;14.30;65.90;;;;;;5048946;28;19920;-58
2022/11/23 12:58:14;;;;;;;;;;;13.70;69.50;;;;;;5039221;28;19934;-49
2022/11/23 13:01:00;;;;;;;;;;;13.70;71.30;;;;;;5049190;28;19920;-50
2022/11/23 13:03:39;;;;;;;;;;;13.40;72.90;;;;;;5048700;28;19917;-53
2022/11/23 13:06:20;;;;;;;;;;;13.30;74.20;;;;;;5048705;28;19917;-59
2022/11/23 13:08:51;;;;;;;;;;;13.10;75.20;;;;;;5048705;28;19913;-48
2022/11/23 13:11:20;;;;;;;;;;;12.80;77.90;;;;;;5048869;28;20375;-48
2022/11/23 13:13:49;;;;;;;;;;;12.60;79.90;;;;;;5048759;28;20287;-50
2022/11/23 13:16:23;;;;;;;;;;;12.40;82.30;;;;;;5048701;28;19912;-48
2022/11/23 13:18:54;;;;;;;;;;;12.10;82.70;;;;;;5049390;28;20101;-49
2022/11/23 13:21:23;;;;;;;;;;;11.70;87.00;;;;;;5048863;28;19966;-54
2022/11/23 13:23:48;;;;;;;;;;;11.60;89.50;;;;;;5063941;28;20011;-50
2022/11/23 13:26:15;;;;;;;;;;;11.40;91.00;;;;;;5048723;28;20431;-50
2022/11/23 13:28:42;;;;;;;;;;;11.10;92.70;;;;;;5048934;28;19912;-48
2022/11/23 13:31:13;;;;;;;;;;;10.80;93.70;;;;;;5056699;28;20434;-47
2022/11/23 13:33:39;;;;;;;;;;;10.60;95.80;;;;;;5057621;28;20351;-48
2022/11/23 13:36:04;;;;;;;;;;;10.50;97.30;;;;;;5048387;28;19967;-49
2022/11/23 13:38:35;;;;;;;;;;;10.30;98.20;;;;;;5048488;28;19964;-52
2022/11/23 13:41:01;;;;;;;;;;;10.10;99.90;;;;;;5048588;28;19965;-50
2022/11/23 13:43:28;;;;;;;;;;;10.00;99.90;;;;;;5048305;28;19921;-48
2022/11/23 13:46:06;;;;;;;;;;;9.80;99.90;;;;;;5048099;28;19913;-50
2022/11/23 13:48:40;;;;;;;;;;;9.50;99.90;;;;;;5047926;28;20028;-51
2022/11/23 13:51:06;;;;;;;;;;;9.30;99.90;;;;;;5046939;28;19916;-49
2022/11/23 13:53:35;;;;;;;;;;;9.10;99.90;;;;;;5048403;28;19913;-48
2022/11/23 13:56:19;;;;;;;;;;;8.90;99.90;;;;;;5048017;28;20355;-48
2022/11/23 13:58:51;;;;;;;;;;;8.90;99.90;;;;;;5047842;28;19959;-51
2022/11/23 14:01:36;;;;;;;;;;;8.80;99.90;;;;;;5049346;28;19913;-49
2022/11/23 14:04:27;;;;;;;;;;;8.70;99.90;;;;;;5051816;28;20337;-51
2022/11/23 14:06:56;;;;;;;;;;;8.70;99.90;;;;;;5050425;28;20386;-54
2022/11/23 14:09:37;;;;;;;;;;;8.50;99.90;;;;;;5051874;28;20364;-53
2022/11/23 14:12:21;;;;;;;;;;;8.40;99.90;;;;;;5052262;28;19954;-50
2022/11/23 14:14:57;;;;;;;;;;;8.40;99.90;;;;;;5051649;28;20395;-49
2022/11/23 14:17:37;;;;;;;;;;;8.40;99.90;;;;;;5051237;28;19909;-50
2022/11/23 14:20:21;;;;;;;;;;;8.40;99.90;;;;;;5051594;28;20372;-58
2022/11/23 14:23:06;;;;;;;;;;;8.40;99.90;;;;;;5051388;28;19979;-52
2022/11/23 14:25:34;;;;;;;;;;;8.40;99.90;;;;;;5051211;28;20021;-52
2022/11/23 14:28:08;;;;;;;;;;;8.50;99.90;;;;;;5051208;28;19966;-49
2022/11/23 14:30:50;;;;;;;;;;;8.40;99.90;;;;;;5051059;28;20319;-49
2022/11/23 14:33:21;;;;;;;;;;;8.40;99.90;;;;;;5051067;28;20003;-50